sensor_id;sensor_type;location;lat;lon;timestamp;P1;durP1;ratioP1;P2;durP2;ratioP2
44430;SDS011;30135;47.866;-4.222;2022-09-30T00:00:29;4.35;;;1.00;;
44430;SDS011;30135;47.866;-4.222;2022-09-30T00:02:55;6.97;;;1.88;;
44430;SDS011;30135;47.866;-4.222;2022-09-30T00:05:21;6.53;;;0.80;;
44430;SDS011;30135;47.866;-4.222;2022-09-30T00:07:48;7.82;;;1.10;;
44430;SDS011;30135;47.866;-4.222;2022-09-30T00:10:14;7.22;;;1.05;;
44430;SDS011;30135;47.866;-4.222;2022-09-30T00:12:42;14.68;;;0.93;;
44430;SDS011;30135;47.866;-4.222;2022-09-30T00:15:08;3.85;;;0.95;;
44430;SDS011;30135;47.866;-4.222;2022-09-30T00:17:35;12.60;;;1.90;;
44430;SDS011;30135;47.866;-4.222;2022-09-30T00:20:00;3.22;;;0.80;;
44430;SDS011;30135;47.866;-4.222;2022-09-30T00:22:27;3.95;;;0.70;;
44430;SDS011;30135;47.866;-4.222;2022-09-30T00:24:53;6.03;;;1.30;;
44430;SDS011;30135;47.866;-4.222;2022-09-30T00:27:19;2.90;;;0.77;;
44430;SDS011;30135;47.866;-4.222;2022-09-30T00:29:45;5.00;;;0.63;;
44430;SDS011;30135;47.866;-4.222;2022-09-30T00:32:11;12.60;;;1.33;;
44430;SDS011;30135;47.866;-4.222;2022-09-30T00:34:37;15.27;;;1.13;;
44430;SDS011;30135;47.866;-4.222;2022-09-30T00:37:03;10.55;;;2.05;;
44430;SDS011;30135;47.866;-4.222;2022-09-30T00:39:29;8.70;;;1.05;;
44430;SDS011;30135;47.866;-4.222;2022-09-30T00:41:59;4.05;;;1.55;;
44430;SDS011;30135;47.866;-4.222;2022-09-30T00:44:43;7.55;;;1.33;;
44430;SDS011;30135;47.866;-4.222;2022-09-30T00:50:19;2.65;;;1.17;;
44430;SDS011;30135;47.866;-4.222;2022-09-30T00:53:24;5.00;;;0.70;;
44430;SDS011;30135;47.866;-4.222;2022-09-30T00:58:46;6.40;;;1.15;;
44430;SDS011;30135;47.866;-4.222;2022-09-30T01:01:21;1.95;;;1.17;;
44430;SDS011;30135;47.866;-4.222;2022-09-30T01:04:30;4.70;;;0.93;;
44430;SDS011;30135;47.866;-4.222;2022-09-30T01:06:40;2.08;;;0.77;;
44430;SDS011;30135;47.866;-4.222;2022-09-30T01:09:08;3.85;;;0.68;;
44430;SDS011;30135;47.866;-4.222;2022-09-30T01:11:35;6.65;;;1.08;;
44430;SDS011;30135;47.866;-4.222;2022-09-30T01:14:02;9.10;;;0.80;;
44430;SDS011;30135;47.866;-4.222;2022-09-30T01:34:13;7.28;;;1.55;;
44430;SDS011;30135;47.866;-4.222;2022-09-30T01:37:54;6.28;;;1.95;;
44430;SDS011;30135;47.866;-4.222;2022-09-30T01:42:52;2.53;;;0.98;;
44430;SDS011;30135;47.866;-4.222;2022-09-30T01:50:58;2.88;;;1.08;;
44430;SDS011;30135;47.866;-4.222;2022-09-30T01:53:48;8.52;;;1.30;;
44430;SDS011;30135;47.866;-4.222;2022-09-30T01:56:28;2.08;;;1.02;;
44430;SDS011;30135;47.866;-4.222;2022-09-30T01:59:00;6.85;;;1.40;;
44430;SDS011;30135;47.866;-4.222;2022-09-30T02:01:49;7.32;;;1.08;;
44430;SDS011;30135;47.866;-4.222;2022-09-30T02:04:25;5.13;;;1.33;;
44430;SDS011;30135;47.866;-4.222;2022-09-30T02:07:06;3.22;;;0.85;;
44430;SDS011;30135;47.866;-4.222;2022-09-30T02:09:42;8.63;;;1.60;;
44430;SDS011;30135;47.866;-4.222;2022-09-30T02:12:19;4.00;;;1.17;;
44430;SDS011;30135;47.866;-4.222;2022-09-30T02:14:54;6.90;;;1.40;;
44430;SDS011;30135;47.866;-4.222;2022-09-30T02:17:38;3.92;;;1.20;;
44430;SDS011;30135;47.866;-4.222;2022-09-30T02:20:20;4.00;;;1.95;;
44430;SDS011;30135;47.866;-4.222;2022-09-30T02:22:53;9.00;;;1.65;;
44430;SDS011;30135;47.866;-4.222;2022-09-30T02:25:34;3.85;;;1.58;;
44430;SDS011;30135;47.866;-4.222;2022-09-30T02:28:07;4.65;;;1.50;;
44430;SDS011;30135;47.866;-4.222;2022-09-30T02:30:41;5.78;;;2.13;;
44430;SDS011;30135;47.866;-4.222;2022-09-30T02:33:18;9.68;;;1.42;;
44430;SDS011;30135;47.866;-4.222;2022-09-30T02:36:02;2.58;;;0.98;;
44430;SDS011;30135;47.866;-4.222;2022-09-30T02:38:36;16.88;;;2.28;;
44430;SDS011;30135;47.866;-4.222;2022-09-30T02:41:17;2.55;;;1.23;;
44430;SDS011;30135;47.866;-4.222;2022-09-30T02:43:48;3.60;;;1.52;;
44430;SDS011;30135;47.866;-4.222;2022-09-30T02:46:22;2.90;;;1.38;;
44430;SDS011;30135;47.866;-4.222;2022-09-30T02:49:35;3.78;;;1.33;;
44430;SDS011;30135;47.866;-4.222;2022-09-30T02:52:09;4.93;;;1.35;;
44430;SDS011;30135;47.866;-4.222;2022-09-30T02:57:53;5.10;;;1.27;;
44430;SDS011;30135;47.866;-4.222;2022-09-30T03:00:38;2.85;;;0.85;;
44430;SDS011;30135;47.866;-4.222;2022-09-30T03:03:14;3.40;;;1.25;;
44430;SDS011;30135;47.866;-4.222;2022-09-30T03:06:16;3.65;;;1.30;;
44430;SDS011;30135;47.866;-4.222;2022-09-30T03:08:43;2.28;;;0.77;;
44430;SDS011;30135;47.866;-4.222;2022-09-30T03:11:14;8.50;;;1.42;;
44430;SDS011;30135;47.866;-4.222;2022-09-30T03:20:24;5.55;;;2.33;;
44430;SDS011;30135;47.866;-4.222;2022-09-30T03:31:47;4.70;;;2.45;;
44430;SDS011;30135;47.866;-4.222;2022-09-30T03:34:29;7.05;;;1.92;;
44430;SDS011;30135;47.866;-4.222;2022-09-30T03:42:50;4.75;;;1.95;;
44430;SDS011;30135;47.866;-4.222;2022-09-30T03:45:32;7.20;;;1.60;;
44430;SDS011;30135;47.866;-4.222;2022-09-30T03:48:04;3.58;;;2.08;;
44430;SDS011;30135;47.866;-4.222;2022-09-30T03:50:35;6.53;;;2.00;;
44430;SDS011;30135;47.866;-4.222;2022-09-30T03:53:02;3.40;;;1.05;;
44430;SDS011;30135;47.866;-4.222;2022-09-30T03:55:42;8.63;;;1.58;;
44430;SDS011;30135;47.866;-4.222;2022-09-30T03:58:14;2.47;;;0.90;;
44430;SDS011;30135;47.866;-4.222;2022-09-30T04:00:44;5.63;;;1.83;;
44430;SDS011;30135;47.866;-4.222;2022-09-30T04:03:14;7.18;;;1.60;;
44430;SDS011;30135;47.866;-4.222;2022-09-30T04:05:41;12.35;;;1.45;;
44430;SDS011;30135;47.866;-4.222;2022-09-30T04:08:08;8.85;;;1.60;;
44430;SDS011;30135;47.866;-4.222;2022-09-30T04:10:34;18.85;;;1.85;;
44430;SDS011;30135;47.866;-4.222;2022-09-30T04:13:01;8.85;;;1.90;;
44430;SDS011;30135;47.866;-4.222;2022-09-30T04:15:27;7.18;;;1.80;;
44430;SDS011;30135;47.866;-4.222;2022-09-30T04:17:53;8.35;;;2.08;;
44430;SDS011;30135;47.866;-4.222;2022-09-30T04:20:19;6.20;;;2.85;;
44430;SDS011;30135;47.866;-4.222;2022-09-30T04:22:45;10.63;;;1.85;;
44430;SDS011;30135;47.866;-4.222;2022-09-30T04:25:11;12.75;;;1.95;;
44430;SDS011;30135;47.866;-4.222;2022-09-30T04:27:37;10.02;;;2.10;;
44430;SDS011;30135;47.866;-4.222;2022-09-30T04:30:04;6.22;;;2.25;;
44430;SDS011;30135;47.866;-4.222;2022-09-30T04:32:30;9.20;;;2.17;;
44430;SDS011;30135;47.866;-4.222;2022-09-30T04:34:57;7.47;;;2.03;;
44430;SDS011;30135;47.866;-4.222;2022-09-30T04:37:23;11.75;;;2.05;;
44430;SDS011;30135;47.866;-4.222;2022-09-30T04:39:49;18.08;;;2.10;;
44430;SDS011;30135;47.866;-4.222;2022-09-30T04:42:14;10.75;;;2.17;;
44430;SDS011;30135;47.866;-4.222;2022-09-30T04:44:42;9.32;;;2.72;;
44430;SDS011;30135;47.866;-4.222;2022-09-30T04:47:08;8.80;;;1.80;;
44430;SDS011;30135;47.866;-4.222;2022-09-30T04:49:34;7.85;;;2.13;;
44430;SDS011;30135;47.866;-4.222;2022-09-30T04:52:00;12.93;;;2.95;;
44430;SDS011;30135;47.866;-4.222;2022-09-30T04:54:27;7.00;;;1.83;;
44430;SDS011;30135;47.866;-4.222;2022-09-30T04:56:52;7.68;;;2.08;;
44430;SDS011;30135;47.866;-4.222;2022-09-30T04:59:18;5.53;;;1.85;;
44430;SDS011;30135;47.866;-4.222;2022-09-30T05:01:44;9.15;;;1.38;;
44430;SDS011;30135;47.866;-4.222;2022-09-30T05:04:10;11.07;;;1.95;;
44430;SDS011;30135;47.866;-4.222;2022-09-30T05:06:36;6.13;;;1.88;;
44430;SDS011;30135;47.866;-4.222;2022-09-30T05:09:06;3.40;;;1.48;;
44430;SDS011;30135;47.866;-4.222;2022-09-30T05:11:32;3.40;;;1.27;;
44430;SDS011;30135;47.866;-4.222;2022-09-30T05:13:58;7.57;;;1.77;;
44430;SDS011;30135;47.866;-4.222;2022-09-30T05:16:24;4.20;;;1.15;;
44430;SDS011;30135;47.866;-4.222;2022-09-30T05:18:52;5.18;;;1.40;;
44430;SDS011;30135;47.866;-4.222;2022-09-30T05:21:18;2.47;;;0.82;;
44430;SDS011;30135;47.866;-4.222;2022-09-30T05:23:46;2.53;;;1.23;;
44430;SDS011;30135;47.866;-4.222;2022-09-30T05:26:12;2.85;;;1.17;;
44430;SDS011;30135;47.866;-4.222;2022-09-30T05:28:39;6.28;;;2.35;;
44430;SDS011;30135;47.866;-4.222;2022-09-30T05:31:06;7.72;;;1.30;;
44430;SDS011;30135;47.866;-4.222;2022-09-30T05:33:32;7.22;;;1.55;;
44430;SDS011;30135;47.866;-4.222;2022-09-30T05:36:00;4.05;;;1.55;;
44430;SDS011;30135;47.866;-4.222;2022-09-30T05:38:30;2.38;;;1.17;;
44430;SDS011;30135;47.866;-4.222;2022-09-30T05:40:57;1.77;;;0.85;;
44430;SDS011;30135;47.866;-4.222;2022-09-30T05:43:23;5.13;;;1.00;;
44430;SDS011;30135;47.866;-4.222;2022-09-30T05:45:55;3.80;;;1.33;;
44430;SDS011;30135;47.866;-4.222;2022-09-30T05:48:22;6.28;;;1.55;;
44430;SDS011;30135;47.866;-4.222;2022-09-30T05:50:53;3.05;;;1.38;;
44430;SDS011;30135;47.866;-4.222;2022-09-30T05:53:21;4.10;;;1.10;;
44430;SDS011;30135;47.866;-4.222;2022-09-30T05:55:49;2.53;;;1.40;;
44430;SDS011;30135;47.866;-4.222;2022-09-30T05:58:15;2.78;;;1.23;;
44430;SDS011;30135;47.866;-4.222;2022-09-30T06:00:43;3.75;;;1.95;;
44430;SDS011;30135;47.866;-4.222;2022-09-30T06:03:12;4.95;;;1.40;;
44430;SDS011;30135;47.866;-4.222;2022-09-30T06:05:39;5.75;;;1.52;;
44430;SDS011;30135;47.866;-4.222;2022-09-30T06:08:05;17.00;;;2.38;;
44430;SDS011;30135;47.866;-4.222;2022-09-30T06:10:34;3.33;;;1.17;;
44430;SDS011;30135;47.866;-4.222;2022-09-30T06:13:03;8.07;;;1.65;;
44430;SDS011;30135;47.866;-4.222;2022-09-30T06:15:30;6.97;;;1.75;;
44430;SDS011;30135;47.866;-4.222;2022-09-30T06:17:56;10.52;;;2.72;;
44430;SDS011;30135;47.866;-4.222;2022-09-30T06:20:23;5.18;;;1.80;;
44430;SDS011;30135;47.866;-4.222;2022-09-30T06:22:50;5.05;;;1.48;;
44430;SDS011;30135;47.866;-4.222;2022-09-30T06:25:17;4.93;;;2.17;;
44430;SDS011;30135;47.866;-4.222;2022-09-30T06:27:44;6.03;;;1.63;;
44430;SDS011;30135;47.866;-4.222;2022-09-30T06:30:14;4.32;;;1.63;;
44430;SDS011;30135;47.866;-4.222;2022-09-30T06:32:42;4.00;;;1.10;;
44430;SDS011;30135;47.866;-4.222;2022-09-30T06:35:09;6.28;;;1.88;;
44430;SDS011;30135;47.866;-4.222;2022-09-30T06:37:36;6.25;;;1.90;;
44430;SDS011;30135;47.866;-4.222;2022-09-30T06:40:03;3.75;;;1.77;;
44430;SDS011;30135;47.866;-4.222;2022-09-30T06:42:32;5.60;;;1.92;;
44430;SDS011;30135;47.866;-4.222;2022-09-30T06:44:58;10.43;;;2.08;;
44430;SDS011;30135;47.866;-4.222;2022-09-30T06:47:25;9.38;;;1.73;;
44430;SDS011;30135;47.866;-4.222;2022-09-30T06:49:51;7.45;;;2.05;;
44430;SDS011;30135;47.866;-4.222;2022-09-30T06:52:23;7.82;;;2.13;;
44430;SDS011;30135;47.866;-4.222;2022-09-30T06:54:51;12.05;;;3.25;;
44430;SDS011;30135;47.866;-4.222;2022-09-30T06:57:20;5.22;;;2.45;;
44430;SDS011;30135;47.866;-4.222;2022-09-30T06:59:48;12.32;;;1.90;;
44430;SDS011;30135;47.866;-4.222;2022-09-30T07:02:17;11.10;;;2.95;;
44430;SDS011;30135;47.866;-4.222;2022-09-30T07:04:43;19.52;;;2.65;;
44430;SDS011;30135;47.866;-4.222;2022-09-30T07:07:09;9.55;;;2.50;;
44430;SDS011;30135;47.866;-4.222;2022-09-30T07:09:35;14.82;;;3.10;;
44430;SDS011;30135;47.866;-4.222;2022-09-30T07:12:02;12.23;;;2.70;;
44430;SDS011;30135;47.866;-4.222;2022-09-30T07:14:28;13.23;;;3.08;;
44430;SDS011;30135;47.866;-4.222;2022-09-30T07:16:56;16.55;;;4.03;;
44430;SDS011;30135;47.866;-4.222;2022-09-30T07:19:22;18.38;;;3.72;;
44430;SDS011;30135;47.866;-4.222;2022-09-30T07:21:48;9.07;;;3.08;;
44430;SDS011;30135;47.866;-4.222;2022-09-30T07:24:18;10.55;;;3.30;;
44430;SDS011;30135;47.866;-4.222;2022-09-30T07:26:44;8.37;;;2.70;;
44430;SDS011;30135;47.866;-4.222;2022-09-30T07:29:10;9.52;;;3.78;;
44430;SDS011;30135;47.866;-4.222;2022-09-30T07:31:38;8.38;;;3.00;;
44430;SDS011;30135;47.866;-4.222;2022-09-30T07:34:04;11.88;;;4.07;;
44430;SDS011;30135;47.866;-4.222;2022-09-30T07:36:32;10.40;;;2.92;;
44430;SDS011;30135;47.866;-4.222;2022-09-30T07:39:03;17.73;;;3.28;;
44430;SDS011;30135;47.866;-4.222;2022-09-30T07:41:32;15.90;;;3.85;;
44430;SDS011;30135;47.866;-4.222;2022-09-30T07:44:01;21.77;;;3.15;;
44430;SDS011;30135;47.866;-4.222;2022-09-30T07:46:31;8.18;;;3.08;;
44430;SDS011;30135;47.866;-4.222;2022-09-30T07:48:59;19.52;;;3.90;;
44430;SDS011;30135;47.866;-4.222;2022-09-30T07:51:29;14.00;;;4.07;;
44430;SDS011;30135;47.866;-4.222;2022-09-30T07:54:00;23.65;;;4.82;;
44430;SDS011;30135;47.866;-4.222;2022-09-30T07:56:51;22.63;;;5.28;;
44430;SDS011;30135;47.866;-4.222;2022-09-30T07:59:18;19.13;;;5.10;;
44430;SDS011;30135;47.866;-4.222;2022-09-30T08:01:45;27.05;;;6.05;;
44430;SDS011;30135;47.866;-4.222;2022-09-30T08:04:12;31.42;;;5.50;;
44430;SDS011;30135;47.866;-4.222;2022-09-30T08:06:40;31.13;;;5.68;;
44430;SDS011;30135;47.866;-4.222;2022-09-30T08:09:12;34.00;;;6.20;;
44430;SDS011;30135;47.866;-4.222;2022-09-30T08:11:41;38.20;;;7.43;;
44430;SDS011;30135;47.866;-4.222;2022-09-30T08:14:10;30.13;;;5.68;;
44430;SDS011;30135;47.866;-4.222;2022-09-30T08:16:49;31.60;;;6.07;;
44430;SDS011;30135;47.866;-4.222;2022-09-30T08:19:17;27.13;;;5.75;;
44430;SDS011;30135;47.866;-4.222;2022-09-30T08:21:46;23.65;;;6.55;;
44430;SDS011;30135;47.866;-4.222;2022-09-30T08:24:14;25.77;;;6.47;;
44430;SDS011;30135;47.866;-4.222;2022-09-30T08:26:41;28.50;;;7.28;;
44430;SDS011;30135;47.866;-4.222;2022-09-30T08:29:08;31.30;;;5.60;;
44430;SDS011;30135;47.866;-4.222;2022-09-30T08:31:38;31.45;;;6.38;;
44430;SDS011;30135;47.866;-4.222;2022-09-30T08:34:05;34.72;;;6.75;;
44430;SDS011;30135;47.866;-4.222;2022-09-30T08:36:31;22.50;;;5.53;;
44430;SDS011;30135;47.866;-4.222;2022-09-30T08:38:58;35.83;;;4.82;;
44430;SDS011;30135;47.866;-4.222;2022-09-30T08:46:56;21.83;;;4.43;;
44430;SDS011;30135;47.866;-4.222;2022-09-30T08:52:51;28.38;;;4.72;;
44430;SDS011;30135;47.866;-4.222;2022-09-30T08:55:44;37.38;;;4.75;;
44430;SDS011;30135;47.866;-4.222;2022-09-30T08:58:22;24.35;;;5.15;;
44430;SDS011;30135;47.866;-4.222;2022-09-30T09:01:09;20.77;;;3.60;;
44430;SDS011;30135;47.866;-4.222;2022-09-30T09:03:45;36.08;;;6.90;;
44430;SDS011;30135;47.866;-4.222;2022-09-30T09:14:38;18.40;;;3.63;;
44430;SDS011;30135;47.866;-4.222;2022-09-30T09:20:19;24.60;;;4.45;;
44430;SDS011;30135;47.866;-4.222;2022-09-30T09:22:49;19.38;;;3.45;;
44430;SDS011;30135;47.866;-4.222;2022-09-30T09:25:18;16.33;;;4.10;;
44430;SDS011;30135;47.866;-4.222;2022-09-30T09:31:07;30.98;;;8.43;;
44430;SDS011;30135;47.866;-4.222;2022-09-30T09:33:41;26.08;;;6.22;;
44430;SDS011;30135;47.866;-4.222;2022-09-30T09:39:08;17.70;;;2.90;;
44430;SDS011;30135;47.866;-4.222;2022-09-30T09:45:50;7.80;;;2.05;;
44430;SDS011;30135;47.866;-4.222;2022-09-30T09:48:29;11.85;;;1.55;;
44430;SDS011;30135;47.866;-4.222;2022-09-30T09:53:52;10.80;;;2.08;;
44430;SDS011;30135;47.866;-4.222;2022-09-30T09:56:25;21.20;;;2.22;;
44430;SDS011;30135;47.866;-4.222;2022-09-30T09:59:05;10.48;;;2.97;;
44430;SDS011;30135;47.866;-4.222;2022-09-30T10:01:43;8.50;;;1.77;;
44430;SDS011;30135;47.866;-4.222;2022-09-30T10:04:49;4.32;;;1.40;;
44430;SDS011;30135;47.866;-4.222;2022-09-30T10:07:24;14.00;;;1.90;;
44430;SDS011;30135;47.866;-4.222;2022-09-30T10:10:04;7.55;;;1.10;;
44430;SDS011;30135;47.866;-4.222;2022-09-30T10:12:44;9.50;;;1.90;;
44430;SDS011;30135;47.866;-4.222;2022-09-30T10:15:19;5.30;;;0.63;;
44430;SDS011;30135;47.866;-4.222;2022-09-30T10:17:50;12.45;;;1.73;;
44430;SDS011;30135;47.866;-4.222;2022-09-30T10:23:06;3.95;;;1.00;;
44430;SDS011;30135;47.866;-4.222;2022-09-30T10:28:29;6.72;;;1.40;;
44430;SDS011;30135;47.866;-4.222;2022-09-30T10:31:05;5.50;;;0.73;;
44430;SDS011;30135;47.866;-4.222;2022-09-30T10:36:15;8.05;;;1.10;;
44430;SDS011;30135;47.866;-4.222;2022-09-30T10:38:56;7.47;;;0.80;;
44430;SDS011;30135;47.866;-4.222;2022-09-30T10:41:39;9.30;;;1.10;;
44430;SDS011;30135;47.866;-4.222;2022-09-30T10:44:15;11.95;;;0.93;;
44430;SDS011;30135;47.866;-4.222;2022-09-30T10:46:47;9.25;;;1.02;;
44430;SDS011;30135;47.866;-4.222;2022-09-30T10:49:26;5.18;;;1.30;;
44430;SDS011;30135;47.866;-4.222;2022-09-30T10:52:28;6.65;;;0.82;;
44430;SDS011;30135;47.866;-4.222;2022-09-30T10:54:58;4.03;;;1.20;;
44430;SDS011;30135;47.866;-4.222;2022-09-30T10:57:31;7.97;;;1.17;;
44430;SDS011;30135;47.866;-4.222;2022-09-30T11:00:04;5.22;;;1.20;;
44430;SDS011;30135;47.866;-4.222;2022-09-30T11:05:44;7.07;;;2.05;;
44430;SDS011;30135;47.866;-4.222;2022-09-30T11:11:27;5.53;;;0.80;;
44430;SDS011;30135;47.866;-4.222;2022-09-30T11:19:57;12.18;;;1.10;;
44430;SDS011;30135;47.866;-4.222;2022-09-30T11:23:36;7.47;;;0.60;;
44430;SDS011;30135;47.866;-4.222;2022-09-30T11:25:46;12.07;;;0.45;;
44430;SDS011;30135;47.866;-4.222;2022-09-30T11:28:23;3.10;;;0.77;;
44430;SDS011;30135;47.866;-4.222;2022-09-30T11:31:09;5.72;;;1.27;;
44430;SDS011;30135;47.866;-4.222;2022-09-30T11:34:17;6.70;;;0.52;;
44430;SDS011;30135;47.866;-4.222;2022-09-30T11:45:04;6.72;;;0.50;;
44430;SDS011;30135;47.866;-4.222;2022-09-30T11:50:51;2.92;;;1.38;;
44430;SDS011;30135;47.866;-4.222;2022-09-30T11:56:37;1.90;;;0.50;;
44430;SDS011;30135;47.866;-4.222;2022-09-30T12:05:06;3.55;;;0.68;;
44430;SDS011;30135;47.866;-4.222;2022-09-30T12:10:53;8.02;;;0.63;;
44430;SDS011;30135;47.866;-4.222;2022-09-30T12:13:37;6.35;;;0.73;;
44430;SDS011;30135;47.866;-4.222;2022-09-30T12:16:17;3.17;;;0.45;;
44430;SDS011;30135;47.866;-4.222;2022-09-30T12:18:55;1.77;;;0.40;;
44430;SDS011;30135;47.866;-4.222;2022-09-30T12:22:12;0.47;;;0.28;;
44430;SDS011;30135;47.866;-4.222;2022-09-30T12:24:47;1.08;;;0.38;;
44430;SDS011;30135;47.866;-4.222;2022-09-30T12:30:03;0.65;;;0.25;;
44430;SDS011;30135;47.866;-4.222;2022-09-30T12:47:39;6.45;;;0.40;;
44430;SDS011;30135;47.866;-4.222;2022-09-30T12:50:21;1.27;;;0.25;;
44430;SDS011;30135;47.866;-4.222;2022-09-30T12:52:54;9.45;;;1.05;;
44430;SDS011;30135;47.866;-4.222;2022-09-30T12:55:29;2.17;;;0.50;;
44430;SDS011;30135;47.866;-4.222;2022-09-30T12:58:03;15.80;;;2.20;;
44430;SDS011;30135;47.866;-4.222;2022-09-30T13:00:32;15.07;;;1.55;;
44430;SDS011;30135;47.866;-4.222;2022-09-30T13:03:03;6.88;;;0.40;;
44430;SDS011;30135;47.866;-4.222;2022-09-30T13:08:08;8.73;;;0.35;;
44430;SDS011;30135;47.866;-4.222;2022-09-30T13:10:57;6.07;;;0.47;;
44430;SDS011;30135;47.866;-4.222;2022-09-30T13:13:25;9.23;;;0.50;;
44430;SDS011;30135;47.866;-4.222;2022-09-30T13:15:57;6.63;;;0.68;;
44430;SDS011;30135;47.866;-4.222;2022-09-30T13:23:36;7.47;;;1.40;;
44430;SDS011;30135;47.866;-4.222;2022-09-30T13:28:48;4.38;;;0.98;;
44430;SDS011;30135;47.866;-4.222;2022-09-30T13:31:17;1.70;;;0.60;;
44430;SDS011;30135;47.866;-4.222;2022-09-30T13:36:30;9.52;;;1.88;;
44430;SDS011;30135;47.866;-4.222;2022-09-30T13:44:43;6.22;;;0.93;;
44430;SDS011;30135;47.866;-4.222;2022-09-30T13:50:14;6.43;;;0.50;;
44430;SDS011;30135;47.866;-4.222;2022-09-30T13:52:59;3.20;;;0.60;;
44430;SDS011;30135;47.866;-4.222;2022-09-30T13:55:35;5.57;;;0.60;;
44430;SDS011;30135;47.866;-4.222;2022-09-30T14:16:43;5.45;;;1.20;;
44430;SDS011;30135;47.866;-4.222;2022-09-30T14:19:39;7.88;;;0.60;;
44430;SDS011;30135;47.866;-4.222;2022-09-30T14:22:24;4.65;;;0.50;;
44430;SDS011;30135;47.866;-4.222;2022-09-30T14:24:54;10.00;;;0.50;;
44430;SDS011;30135;47.866;-4.222;2022-09-30T14:27:23;8.55;;;1.00;;
44430;SDS011;30135;47.866;-4.222;2022-09-30T14:30:15;8.77;;;0.70;;
44430;SDS011;30135;47.866;-4.222;2022-09-30T14:33:00;5.40;;;1.25;;
44430;SDS011;30135;47.866;-4.222;2022-09-30T14:35:34;8.32;;;0.77;;
44430;SDS011;30135;47.866;-4.222;2022-09-30T14:40:49;4.50;;;0.65;;
44430;SDS011;30135;47.866;-4.222;2022-09-30T14:43:20;8.30;;;0.75;;
44430;SDS011;30135;47.866;-4.222;2022-09-30T14:46:13;4.50;;;0.47;;
44430;SDS011;30135;47.866;-4.222;2022-09-30T14:49:04;3.83;;;0.80;;
44430;SDS011;30135;47.866;-4.222;2022-09-30T14:51:44;6.93;;;0.90;;
44430;SDS011;30135;47.866;-4.222;2022-09-30T14:54:17;5.20;;;0.85;;
44430;SDS011;30135;47.866;-4.222;2022-09-30T14:56:46;2.35;;;0.52;;
44430;SDS011;30135;47.866;-4.222;2022-09-30T15:02:01;8.68;;;0.77;;
44430;SDS011;30135;47.866;-4.222;2022-09-30T15:04:48;7.40;;;0.98;;
44430;SDS011;30135;47.866;-4.222;2022-09-30T15:07:19;13.10;;;1.38;;
44430;SDS011;30135;47.866;-4.222;2022-09-30T15:09:46;4.28;;;1.15;;
44430;SDS011;30135;47.866;-4.222;2022-09-30T15:12:20;7.07;;;0.90;;
44430;SDS011;30135;47.866;-4.222;2022-09-30T15:17:19;2.75;;;0.60;;
44430;SDS011;30135;47.866;-4.222;2022-09-30T15:19:55;8.35;;;1.08;;
44430;SDS011;30135;47.866;-4.222;2022-09-30T15:22:24;9.27;;;0.90;;
44430;SDS011;30135;47.866;-4.222;2022-09-30T15:24:53;12.48;;;0.93;;
44430;SDS011;30135;47.866;-4.222;2022-09-30T15:27:26;10.07;;;1.05;;
44430;SDS011;30135;47.866;-4.222;2022-09-30T15:30:00;10.38;;;0.85;;
44430;SDS011;30135;47.866;-4.222;2022-09-30T15:32:38;7.10;;;0.75;;
44430;SDS011;30135;47.866;-4.222;2022-09-30T15:35:05;11.30;;;1.70;;
44430;SDS011;30135;47.866;-4.222;2022-09-30T15:37:39;12.43;;;1.23;;
44430;SDS011;30135;47.866;-4.222;2022-09-30T15:40:21;8.10;;;1.27;;
44430;SDS011;30135;47.866;-4.222;2022-09-30T15:43:07;13.88;;;1.58;;
44430;SDS011;30135;47.866;-4.222;2022-09-30T15:45:41;10.52;;;1.33;;
44430;SDS011;30135;47.866;-4.222;2022-09-30T15:50:55;7.70;;;0.60;;
44430;SDS011;30135;47.866;-4.222;2022-09-30T15:58:57;6.78;;;0.88;;
44430;SDS011;30135;47.866;-4.222;2022-09-30T16:01:34;24.95;;;1.25;;
44430;SDS011;30135;47.866;-4.222;2022-09-30T16:04:04;10.75;;;0.98;;
44430;SDS011;30135;47.866;-4.222;2022-09-30T16:06:52;10.57;;;1.50;;
44430;SDS011;30135;47.866;-4.222;2022-09-30T16:09:38;23.02;;;1.58;;
44430;SDS011;30135;47.866;-4.222;2022-09-30T16:14:44;10.05;;;0.80;;
44430;SDS011;30135;47.866;-4.222;2022-09-30T16:19:50;11.07;;;1.17;;
44430;SDS011;30135;47.866;-4.222;2022-09-30T16:27:46;6.53;;;0.95;;
44430;SDS011;30135;47.866;-4.222;2022-09-30T16:30:23;9.02;;;1.58;;
44430;SDS011;30135;47.866;-4.222;2022-09-30T16:32:53;11.50;;;1.47;;
44430;SDS011;30135;47.866;-4.222;2022-09-30T16:35:23;17.88;;;1.95;;
44430;SDS011;30135;47.866;-4.222;2022-09-30T16:38:04;9.95;;;1.85;;
44430;SDS011;30135;47.866;-4.222;2022-09-30T16:40:39;9.73;;;1.25;;
44430;SDS011;30135;47.866;-4.222;2022-09-30T16:43:05;10.85;;;1.73;;
44430;SDS011;30135;47.866;-4.222;2022-09-30T16:45:37;11.98;;;1.88;;
44430;SDS011;30135;47.866;-4.222;2022-09-30T16:48:10;17.63;;;1.75;;
44430;SDS011;30135;47.866;-4.222;2022-09-30T16:53:17;11.45;;;2.65;;
44430;SDS011;30135;47.866;-4.222;2022-09-30T16:55:44;13.88;;;1.33;;
44430;SDS011;30135;47.866;-4.222;2022-09-30T16:58:12;9.15;;;2.47;;
44430;SDS011;30135;47.866;-4.222;2022-09-30T17:00:40;21.38;;;1.80;;
44430;SDS011;30135;47.866;-4.222;2022-09-30T17:03:11;17.13;;;1.65;;
44430;SDS011;30135;47.866;-4.222;2022-09-30T17:05:45;23.75;;;3.10;;
44430;SDS011;30135;47.866;-4.222;2022-09-30T17:08:16;7.20;;;1.40;;
44430;SDS011;30135;47.866;-4.222;2022-09-30T17:10:44;10.55;;;1.70;;
44430;SDS011;30135;47.866;-4.222;2022-09-30T17:15:42;14.10;;;2.00;;
44430;SDS011;30135;47.866;-4.222;2022-09-30T17:18:17;9.02;;;2.08;;
44430;SDS011;30135;47.866;-4.222;2022-09-30T17:20:46;15.38;;;2.67;;
44430;SDS011;30135;47.866;-4.222;2022-09-30T17:23:22;21.33;;;1.80;;
44430;SDS011;30135;47.866;-4.222;2022-09-30T17:25:50;11.55;;;2.00;;
44430;SDS011;30135;47.866;-4.222;2022-09-30T17:28:16;16.50;;;1.83;;
44430;SDS011;30135;47.866;-4.222;2022-09-30T17:30:43;15.10;;;1.73;;
44430;SDS011;30135;47.866;-4.222;2022-09-30T17:33:13;11.38;;;1.85;;
44430;SDS011;30135;47.866;-4.222;2022-09-30T17:35:41;18.73;;;2.22;;
44430;SDS011;30135;47.866;-4.222;2022-09-30T17:38:11;17.75;;;3.28;;
44430;SDS011;30135;47.866;-4.222;2022-09-30T17:40:38;17.48;;;3.53;;
44430;SDS011;30135;47.866;-4.222;2022-09-30T17:43:23;24.98;;;2.55;;
44430;SDS011;30135;47.866;-4.222;2022-09-30T17:45:50;19.10;;;3.95;;
44430;SDS011;30135;47.866;-4.222;2022-09-30T17:48:19;18.77;;;2.47;;
44430;SDS011;30135;47.866;-4.222;2022-09-30T17:50:46;24.13;;;4.22;;
44430;SDS011;30135;47.866;-4.222;2022-09-30T17:53:14;15.73;;;1.73;;
44430;SDS011;30135;47.866;-4.222;2022-09-30T17:55:44;11.25;;;2.33;;
44430;SDS011;30135;47.866;-4.222;2022-09-30T17:58:13;13.27;;;1.52;;
44430;SDS011;30135;47.866;-4.222;2022-09-30T18:00:41;15.20;;;2.08;;
44430;SDS011;30135;47.866;-4.222;2022-09-30T18:03:09;21.35;;;2.28;;
44430;SDS011;30135;47.866;-4.222;2022-09-30T18:08:05;10.75;;;1.60;;
44430;SDS011;30135;47.866;-4.222;2022-09-30T18:10:34;13.38;;;1.20;;
44430;SDS011;30135;47.866;-4.222;2022-09-30T18:13:03;11.15;;;1.60;;
44430;SDS011;30135;47.866;-4.222;2022-09-30T18:15:30;16.35;;;3.40;;
44430;SDS011;30135;47.866;-4.222;2022-09-30T18:17:57;18.70;;;1.75;;
44430;SDS011;30135;47.866;-4.222;2022-09-30T18:20:26;9.83;;;1.90;;
44430;SDS011;30135;47.866;-4.222;2022-09-30T18:22:52;13.98;;;3.42;;
44430;SDS011;30135;47.866;-4.222;2022-09-30T18:25:19;20.65;;;2.40;;
44430;SDS011;30135;47.866;-4.222;2022-09-30T18:27:50;12.18;;;1.83;;
44430;SDS011;30135;47.866;-4.222;2022-09-30T18:30:21;14.45;;;2.28;;
44430;SDS011;30135;47.866;-4.222;2022-09-30T18:32:49;17.77;;;2.80;;
44430;SDS011;30135;47.866;-4.222;2022-09-30T18:35:17;9.95;;;1.48;;
44430;SDS011;30135;47.866;-4.222;2022-09-30T18:37:46;28.60;;;3.08;;
44430;SDS011;30135;47.866;-4.222;2022-09-30T18:40:17;14.15;;;2.00;;
44430;SDS011;30135;47.866;-4.222;2022-09-30T18:42:46;11.88;;;2.58;;
44430;SDS011;30135;47.866;-4.222;2022-09-30T18:45:19;15.93;;;1.65;;